createdAt,value
2016-02-07T00:01:38.561Z,19.38
2016-02-07T00:02:37.690Z,19.38
2016-02-07T00:02:56.412Z,19.34
2016-02-07T00:03:53.773Z,19.34
2016-02-07T00:05:13.760Z,19.38
2016-02-07T00:06:09.451Z,19.37
2016-02-07T00:07:31.515Z,19.35
2016-02-07T00:08:07.440Z,19.35
2016-02-07T00:09:37.148Z,19.37
2016-02-07T00:10:15.432Z,19.38
2016-02-07T00:12:30.671Z,19.34
2016-02-07T00:13:29.252Z,19.38
2016-02-07T00:14:41.912Z,19.37
2016-02-07T00:15:48.261Z,19.35
2016-02-07T00:16:33.906Z,19.37
2016-02-07T00:18:30.973Z,19.3
2016-02-07T00:19:09.445Z,19.41
2016-02-07T00:19:43.820Z,19.34
2016-02-07T00:21:15.731Z,19.37
2016-02-07T00:21:53.986Z,19.35
2016-02-07T00:23:25.333Z,19.37
2016-02-07T00:24:09.241Z,19.35
2016-02-07T00:25:09.277Z,19.34
2016-02-07T00:26:22.047Z,19.42
2016-02-07T00:27:15.596Z,19.47
2016-02-07T00:28:35.083Z,19.37
2016-02-07T00:29:18.962Z,19.39
2016-02-07T00:30:38.188Z,19.41
2016-02-07T00:31:19.597Z,19.35
2016-02-07T00:32:50.369Z,19.34
2016-02-07T00:33:34.244Z,19.35
2016-02-07T00:34:34.280Z,19.37
2016-02-07T00:36:05.613Z,19.37
2016-02-07T00:36:35.972Z,19.3
2016-02-07T00:37:34.428Z,19.37
2016-02-07T00:38:53.621Z,19.29
2016-02-07T00:39:35.090Z,19.32
2016-02-07T00:41:32.081Z,19.34
2016-02-07T00:41:44.643Z,19.34
2016-02-07T00:42:44.647Z,19.39
2016-02-07T00:43:50.966Z,19.32
2016-02-07T00:44:57.453Z,19.42
2016-02-07T00:45:57.581Z,19.37
2016-02-07T00:46:44.784Z,19.3
2016-02-07T00:47:58.977Z,19.3
2016-02-07T00:49:16.152Z,19.35
2016-02-07T00:50:07.123Z,19.34
2016-02-07T00:51:20.109Z,19.34
2016-02-07T00:52:04.035Z,19.37
2016-02-07T00:53:23.229Z,19.37
2016-02-07T00:54:13.435Z,19.37
2016-02-07T00:55:07.109Z,19.39
2016-02-07T00:56:20.003Z,19.3
2016-02-07T00:57:07.771Z,19.32
2016-02-07T00:58:26.398Z,19.3
2016-02-07T00:59:19.980Z,19.41
2016-02-07T01:00:32.967Z,19.35
2016-02-07T01:01:26.470Z,19.41
2016-02-07T01:04:16.948Z,19.3
2016-02-07T01:05:16.966Z,19.35
2016-02-07T01:06:44.079Z,19.32
2016-02-07T01:07:23.268Z,19.29
2016-02-07T01:08:17.021Z,19.32
2016-02-07T01:09:17.058Z,19.34
2016-02-07T01:10:17.093Z,19.35
2016-02-07T01:11:17.299Z,19.35
2016-02-07T01:12:17.130Z,19.32
2016-02-07T01:13:17.180Z,19.34
2016-02-07T01:14:29.947Z,19.34
2016-02-07T01:15:17.841Z,19.3
2016-02-07T01:16:17.265Z,19.32
2016-02-07T01:17:17.285Z,19.32
2016-02-07T01:18:17.335Z,19.35
2016-02-07T01:19:17.353Z,19.29
2016-02-07T01:20:30.106Z,19.34
2016-02-07T01:21:18.000Z,19.3
2016-02-07T01:22:43.096Z,19.27
2016-02-07T01:23:23.771Z,19.34
2016-02-07T01:24:17.477Z,19.32
2016-02-07T01:25:17.511Z,19.26
2016-02-07T01:26:18.154Z,19.32
2016-02-07T01:27:17.563Z,19.32
2016-02-07T01:28:17.612Z,19.23
2016-02-07T01:29:18.022Z,19.34
2016-02-07T01:30:17.650Z,19.38
2016-02-07T01:31:17.888Z,19.34
2016-02-07T01:32:36.921Z,19.37
2016-02-07T01:33:20.830Z,19.29
2016-02-07T01:34:46.520Z,19.34
2016-02-07T01:35:30.414Z,19.34
2016-02-07T01:36:56.182Z,19.32
2016-02-07T01:37:37.314Z,19.35
2016-02-07T01:38:56.160Z,19.29
2016-02-07T01:39:49.725Z,19.27
2016-02-07T01:41:01.994Z,19.32
2016-02-07T01:41:56.091Z,19.32
2016-02-07T01:43:39.986Z,19.32
2016-02-07T01:44:40.020Z,19.37
2016-02-07T01:45:46.351Z,19.2
2016-02-07T01:46:41.510Z,19.29
2016-02-07T01:47:52.840Z,19.34
2016-02-07T01:48:40.202Z,19.27
2016-02-07T01:49:59.362Z,19.29
2016-02-07T01:50:43.319Z,19.23
2016-02-07T01:51:43.368Z,19.29
2016-02-07T01:52:56.136Z,19.3
2016-02-07T01:53:56.170Z,19.27
2016-02-07T01:55:02.658Z,19.34
2016-02-07T01:56:02.662Z,19.35
2016-02-07T01:57:09.214Z,19.34
2016-02-07T01:58:09.201Z,19.24
2016-02-07T01:58:53.077Z,19.3
2016-02-07T01:59:53.127Z,19.29
2016-02-07T02:01:24.460Z,19.29
2016-02-07T02:01:53.163Z,19.29
2016-02-07T02:02:53.197Z,19.34
2016-02-07T02:03:53.803Z,19.29
2016-02-07T02:04:53.229Z,19.23
2016-02-07T02:06:05.986Z,19.24
2016-02-07T02:07:05.974Z,19.29
2016-02-07T02:07:53.255Z,19.23
2016-02-07T02:09:12.511Z,19.27
2016-02-07T02:09:53.340Z,19.24
2016-02-07T02:10:53.321Z,19.26
2016-02-07T02:11:53.943Z,19.24
2016-02-07T02:12:53.409Z,19.27
2016-02-07T02:13:54.017Z,19.2
2016-02-07T02:14:53.425Z,19.24
2016-02-07T02:16:06.192Z,19.27
2016-02-07T02:16:54.083Z,19.2
2016-02-07T02:17:53.537Z,19.2
2016-02-07T02:18:53.381Z,19.27
2016-02-07T02:19:54.165Z,19.26
2016-02-07T02:20:53.573Z,19.3
2016-02-07T02:21:53.639Z,19.23
2016-02-07T02:22:53.657Z,19.2
2016-02-07T02:23:53.894Z,19.2
2016-02-07T02:24:53.524Z,19.23
2016-02-07T02:25:53.714Z,19.22
2016-02-07T02:27:06.518Z,19.26
2016-02-07T02:28:12.977Z,19.26
2016-02-07T02:28:54.264Z,19.27
2016-02-07T02:29:54.752Z,19.27
2016-02-07T02:30:54.035Z,19.22
2016-02-07T02:32:06.616Z,19.24
2016-02-07T02:32:53.931Z,19.24
2016-02-07T02:34:13.156Z,19.23
2016-02-07T02:35:03.296Z,19.23
2016-02-07T02:35:57.049Z,19.2
2016-02-07T02:36:57.114Z,19.24
2016-02-07T02:37:57.086Z,19.23
2016-02-07T02:38:57.135Z,19.23
2016-02-07T02:40:03.451Z,19.22
2016-02-07T02:41:10.003Z,19.22
2016-02-07T02:41:57.237Z,19.29
2016-02-07T02:42:57.228Z,19.26
2016-02-07T02:44:03.545Z,19.22
2016-02-07T02:44:57.328Z,19.26
2016-02-07T02:46:10.084Z,19.19
2016-02-07T02:47:10.087Z,19.22
2016-02-07T02:47:57.368Z,19.23
2016-02-07T02:48:57.434Z,19.19
2016-02-07T02:50:10.189Z,19.17
2016-02-07T02:50:58.096Z,19.23
2016-02-07T02:51:57.490Z,19.23
2016-02-07T02:52:59.005Z,19.3
2016-02-07T02:54:10.291Z,19.17
2016-02-07T02:55:16.778Z,19.15
2016-02-07T02:56:23.296Z,19.19
2016-02-07T02:57:23.345Z,19.22
2016-02-07T02:58:28.974Z,19.16
2016-02-07T02:58:57.726Z,19.24
2016-02-07T02:59:57.821Z,19.16
2016-02-07T03:00:57.793Z,19.23
2016-02-07T03:01:57.779Z,19.22
2016-02-07T03:03:10.582Z,19.19
2016-02-07T03:03:57.848Z,19.2
2016-02-07T03:05:17.062Z,19.17
2016-02-07T03:05:58.093Z,19.22
2016-02-07T03:06:57.909Z,19.2
2016-02-07T03:07:57.942Z,19.2
2016-02-07T03:09:04.243Z,19.19
2016-02-07T03:09:58.026Z,19.17
2016-02-07T03:10:58.045Z,19.11
2016-02-07T03:12:10.787Z,19.17
2016-02-07T03:12:58.178Z,19.22
2016-02-07T03:13:58.118Z,19.22
2016-02-07T03:15:17.342Z,19.11
2016-02-07T03:16:17.361Z,19.22
2016-02-07T03:18:33.445Z,19.16
2016-02-07T03:19:33.479Z,19.16
2016-02-07T03:20:33.560Z,19.17
2016-02-07T03:21:40.424Z,19.19
2016-02-07T03:22:33.615Z,19.16
2016-02-07T03:23:33.602Z,19.2
2016-02-07T03:24:46.354Z,19.23
2016-02-07T03:25:33.654Z,19.12
2016-02-07T03:26:52.985Z,19.23
2016-02-07T03:27:36.862Z,19.19
2016-02-07T03:28:36.881Z,19.12
2016-02-07T03:29:43.196Z,19.2
2016-02-07T03:30:36.980Z,19.12
2016-02-07T03:31:37.029Z,19.19
2016-02-07T03:32:37.017Z,19.2
2016-02-07T03:33:37.023Z,19.19
2016-02-07T03:34:37.087Z,19.17
2016-02-07T03:35:37.106Z,19.17
2016-02-07T03:36:37.123Z,19.17
2016-02-07T03:37:43.409Z,19.15
2016-02-07T03:38:37.254Z,19.17
2016-02-07T03:39:37.211Z,19.08
2016-02-07T03:40:38.698Z,19.09
2016-02-07T03:41:43.560Z,19.11
2016-02-07T03:42:37.298Z,19.19
2016-02-07T03:43:37.348Z,19.22
2016-02-07T03:44:50.068Z,19.22
2016-02-07T03:45:50.104Z,19.15
2016-02-07T03:46:50.121Z,19.17
2016-02-07T03:47:37.406Z,19.12
2016-02-07T03:48:56.658Z,19.07
2016-02-07T03:49:37.476Z,19.16
2016-02-07T03:50:37.494Z,19.12
2016-02-07T03:51:50.262Z,19.22
2016-02-07T03:52:37.593Z,19.22
2016-02-07T03:53:56.845Z,19.12
2016-02-07T03:54:46.989Z,19.16
2016-02-07T03:55:40.758Z,19.12
2016-02-07T03:56:40.869Z,19.15
2016-02-07T03:57:40.794Z,19.16
2016-02-07T03:58:40.844Z,19.19
2016-02-07T03:59:53.612Z,19.08
2016-02-07T04:00:40.896Z,19.16
2016-02-07T04:01:40.918Z,19.15
2016-02-07T04:02:47.201Z,19.12
2016-02-07T04:03:47.235Z,19.22
2016-02-07T04:04:53.753Z,19.12
2016-02-07T04:05:42.427Z,19.22
2016-02-07T04:07:00.259Z,19.12
2016-02-07T04:07:40.934Z,19.2
2016-02-07T04:08:41.139Z,19.08
2016-02-07T04:09:41.141Z,19.11
2016-02-07T04:10:41.175Z,19.15
2016-02-07T04:11:53.944Z,19.12
2016-02-07T04:12:41.291Z,19.08
2016-02-07T04:14:00.449Z,19.07
2016-02-07T04:14:42.702Z,19.19
2016-02-07T04:15:41.313Z,19.09
2016-02-07T04:16:54.099Z,19.2
2016-02-07T04:17:41.365Z,19.11
2016-02-07T04:18:41.384Z,19.17
2016-02-07T04:19:41.418Z,19.09
2016-02-07T04:21:00.656Z,19.19
2016-02-07T04:22:06.815Z,19.17
2016-02-07T04:22:50.677Z,19.12
2016-02-07T04:23:50.710Z,19.16
2016-02-07T04:25:03.526Z,19.2
2016-02-07T04:25:50.762Z,19.17
2016-02-07T04:27:16.581Z,19.16
2016-02-07T04:28:03.565Z,19.24
2016-02-07T04:28:50.896Z,19.19
2016-02-07T04:29:50.883Z,19.22
2016-02-07T04:30:57.183Z,19.16
2016-02-07T04:31:50.936Z,19.22
2016-02-07T04:33:10.234Z,19.23
2016-02-07T04:33:57.237Z,19.19
2016-02-07T04:34:54.131Z,19.24
2016-02-07T04:35:54.227Z,19.29
2016-02-07T04:36:54.204Z,19.29
2016-02-07T04:37:54.253Z,19.34
2016-02-07T04:39:00.521Z,19.37
2016-02-07T04:39:54.274Z,19.41
2016-02-07T04:41:07.048Z,19.38
2016-02-07T04:42:13.554Z,19.37
2016-02-07T04:42:54.367Z,19.32
2016-02-07T04:43:54.385Z,19.3
2016-02-07T04:44:54.466Z,19.3
2016-02-07T04:45:54.437Z,19.27
2016-02-07T04:46:54.492Z,19.35
2016-02-07T04:48:05.589Z,19.32
2016-02-07T04:48:55.919Z,19.35
2016-02-07T04:50:20.363Z,19.32
2016-02-07T04:51:05.284Z,19.35
2016-02-07T04:52:30.258Z,19.35
2016-02-07T04:53:17.496Z,19.34
2016-02-07T04:54:04.839Z,19.35
2016-02-07T04:55:04.857Z,19.38
2016-02-07T04:56:05.266Z,19.34
2016-02-07T04:57:11.991Z,19.35
2016-02-07T04:58:06.228Z,19.38
2016-02-07T04:59:20.202Z,19.39
2016-02-07T05:00:19.096Z,19.34
2016-02-07T05:01:37.176Z,19.38
2016-02-07T05:02:32.445Z,19.39
2016-02-07T05:04:51.638Z,19.34
2016-02-07T05:05:25.781Z,19.38
2016-02-07T05:07:38.803Z,19.38
2016-02-07T05:08:32.322Z,19.44
2016-02-07T05:10:19.829Z,19.34
2016-02-07T05:10:57.391Z,19.35
2016-02-07T05:11:49.691Z,19.37
2016-02-07T05:12:38.318Z,19.35
2016-02-07T05:13:37.367Z,19.35
2016-02-07T05:14:40.370Z,19.38
2016-02-07T05:15:38.548Z,19.39
2016-02-07T05:16:51.215Z,19.41
2016-02-07T05:17:50.374Z,19.39
2016-02-07T05:18:45.783Z,19.38
2016-02-07T05:19:44.802Z,19.41
2016-02-07T05:20:37.555Z,19.38
2016-02-07T05:21:41.182Z,19.37
2016-02-07T05:22:51.794Z,19.42
2016-02-07T05:23:44.938Z,19.49
2016-02-07T05:24:44.270Z,19.41
2016-02-07T05:26:02.975Z,19.35
2016-02-07T05:26:48.212Z,19.39
2016-02-07T05:28:14.418Z,19.32
2016-02-07T05:28:48.421Z,19.44
2016-02-07T05:30:18.895Z,19.45
2016-02-07T05:30:57.364Z,19.42
2016-02-07T05:32:58.135Z,19.42
2016-02-07T05:33:13.525Z,19.52
2016-02-07T05:35:17.658Z,19.38
2016-02-07T05:35:32.861Z,19.44
2016-02-07T05:36:34.459Z,19.42
2016-02-07T05:39:12.261Z,19.44
2016-02-07T05:40:04.263Z,19.49
2016-02-07T05:42:10.274Z,19.49
2016-02-07T05:42:32.042Z,19.41
2016-02-07T05:43:40.670Z,19.48
2016-02-07T05:44:35.284Z,19.49
2016-02-07T05:46:00.864Z,19.48
2016-02-07T05:47:16.711Z,19.38
2016-02-07T05:48:26.403Z,19.45
2016-02-07T05:49:00.763Z,19.48
2016-02-07T05:50:00.815Z,19.53
2016-02-07T05:51:13.553Z,19.49
2016-02-07T05:52:00.852Z,19.48
2016-02-07T05:53:20.076Z,19.42
2016-02-07T05:54:03.951Z,19.49
2016-02-07T05:55:29.660Z,19.38
2016-02-07T05:56:44.818Z,19.42
2016-02-07T05:57:57.603Z,19.49
2016-02-07T05:58:57.637Z,19.47
2016-02-07T06:00:04.109Z,19.45
2016-02-07T06:01:16.252Z,19.45
2016-02-07T06:01:45.583Z,19.42
2016-02-07T06:02:45.086Z,19.49
2016-02-07T06:03:54.637Z,19.47
2016-02-07T06:04:54.732Z,19.49
2016-02-07T06:05:54.689Z,19.52
2016-02-07T06:06:54.711Z,19.38
2016-02-07T06:07:54.745Z,19.48
2016-02-07T06:09:07.530Z,19.42
2016-02-07T06:09:54.798Z,19.45
2016-02-07T06:11:14.023Z,19.42
2016-02-07T06:11:54.854Z,19.44
2016-02-07T06:13:51.875Z,19.48
2016-02-07T06:14:10.703Z,19.48
2016-02-07T06:17:22.699Z,19.37
2016-02-07T06:17:47.980Z,19.52
2016-02-07T06:19:45.001Z,19.39
2016-02-07T06:19:59.017Z,19.48
2016-02-07T06:20:59.035Z,19.48
2016-02-07T06:21:59.054Z,19.49
2016-02-07T06:23:11.853Z,19.48
2016-02-07T06:23:59.840Z,19.39
2016-02-07T06:25:18.343Z,19.45
2016-02-07T06:26:06.861Z,19.52
2016-02-07T06:27:24.679Z,19.48
2016-02-07T06:28:34.276Z,19.48
2016-02-07T06:30:21.547Z,19.48
2016-02-07T06:31:31.081Z,19.48
2016-02-07T06:32:02.909Z,19.48
2016-02-07T06:33:12.474Z,19.48
2016-02-07T06:33:56.352Z,19.42
2016-02-07T06:34:56.387Z,19.48
2016-02-07T06:35:56.420Z,19.44
2016-02-07T06:37:02.722Z,19.49
2016-02-07T06:37:56.583Z,19.55
2016-02-07T06:39:09.258Z,19.45
2016-02-07T06:39:57.933Z,19.42
2016-02-07T06:41:15.764Z,19.45
2016-02-07T06:41:59.625Z,19.59
2016-02-07T06:43:27.929Z,19.45
2016-02-07T06:44:01.101Z,19.45
2016-02-07T06:45:56.685Z,19.56
2016-02-07T06:46:09.310Z,19.45
2016-02-07T06:48:18.878Z,19.6
2016-02-07T06:49:21.962Z,19.56
2016-02-07T06:50:21.950Z,19.48
2016-02-07T06:51:47.718Z,19.53
2016-02-07T06:52:57.253Z,19.49
2016-02-07T06:53:41.131Z,19.56
2016-02-07T06:56:47.827Z,19.59
2016-02-07T06:57:22.188Z,19.62
2016-02-07T06:59:24.820Z,19.57
2016-02-07T06:59:56.617Z,19.6
2016-02-07T07:00:37.572Z,19.59
2016-02-07T07:02:03.122Z,19.6
2016-02-07T07:02:47.000Z,19.6
2016-02-07T07:04:06.273Z,19.57
2016-02-07T07:05:18.385Z,19.62
2016-02-07T07:06:06.404Z,19.59
2016-02-07T07:06:47.235Z,19.64
2016-02-07T07:08:12.848Z,19.64
2016-02-07T07:08:47.225Z,19.57
2016-02-07T07:11:02.544Z,19.6
2016-02-07T07:12:02.563Z,19.53
2016-02-07T07:13:15.315Z,19.6
2016-02-07T07:14:02.615Z,19.59
2016-02-07T07:15:21.860Z,19.64
2016-02-07T07:16:15.516Z,19.59
2016-02-07T07:17:34.021Z,19.59
2016-02-07T07:18:28.399Z,19.57
2016-02-07T07:19:02.762Z,19.6
2016-02-07T07:20:34.110Z,19.6
2016-02-07T07:21:02.813Z,19.6
2016-02-07T07:22:02.832Z,19.62
2016-02-07T07:23:02.865Z,19.57
2016-02-07T07:24:02.903Z,19.66
2016-02-07T07:25:03.297Z,19.55
2016-02-07T07:26:03.753Z,19.64
2016-02-07T07:27:09.537Z,19.67
2016-02-07T07:28:03.135Z,19.64
2016-02-07T07:29:03.277Z,19.64
2016-02-07T07:30:03.140Z,19.64
2016-02-07T07:31:03.220Z,19.64
2016-02-07T07:32:03.133Z,19.64
2016-02-07T07:33:03.246Z,19.62
2016-02-07T07:34:03.186Z,19.64
2016-02-07T07:35:03.235Z,19.67
2016-02-07T07:36:03.331Z,19.7
2016-02-07T07:37:03.272Z,19.7
2016-02-07T07:38:03.290Z,19.63
2016-02-07T07:39:03.387Z,19.67
2016-02-07T07:40:03.375Z,19.67
2016-02-07T07:41:03.377Z,19.75
2016-02-07T07:42:03.396Z,19.77
2016-02-07T07:43:03.446Z,19.75
2016-02-07T07:44:03.463Z,19.71
2016-02-07T07:45:03.487Z,19.71
2016-02-07T07:46:03.521Z,19.67
2016-02-07T07:47:03.594Z,19.66
2016-02-07T07:48:03.565Z,19.7
2016-02-07T07:49:03.615Z,19.66
2016-02-07T07:50:03.634Z,19.72
2016-02-07T07:51:03.651Z,19.7
2016-02-07T07:52:03.685Z,19.7
2016-02-07T07:53:03.689Z,19.67
2016-02-07T07:54:03.754Z,19.71
2016-02-07T07:55:03.757Z,19.75
2016-02-07T07:56:03.806Z,19.71
2016-02-07T07:57:03.825Z,19.67
2016-02-07T07:58:03.859Z,19.71
2016-02-07T07:59:03.892Z,19.71
2016-02-07T08:00:03.911Z,19.77
2016-02-07T08:01:03.946Z,19.77
2016-02-07T08:02:03.980Z,19.78
2016-02-07T08:03:03.983Z,19.66
2016-02-07T08:04:04.032Z,19.78
2016-02-07T08:05:04.097Z,19.78
2016-02-07T08:06:04.100Z,19.67
2016-02-07T08:07:04.120Z,19.81
2016-02-07T08:08:04.153Z,19.79
2016-02-07T08:09:04.218Z,19.77
2016-02-07T08:10:04.190Z,19.77
2016-02-07T08:11:04.223Z,19.79
2016-02-07T08:12:04.274Z,19.79
2016-02-07T08:13:04.261Z,19.77
2016-02-07T08:14:04.314Z,19.82
2016-02-07T08:15:04.364Z,19.82
2016-02-07T08:16:04.431Z,19.82
2016-02-07T08:17:04.402Z,19.79
2016-02-07T08:18:04.436Z,19.84
2016-02-07T08:19:04.469Z,19.79
2016-02-07T08:20:04.537Z,19.74
2016-02-07T08:21:04.493Z,19.81
2016-02-07T08:22:04.574Z,19.84
2016-02-07T08:23:04.576Z,19.84
2016-02-07T08:24:04.610Z,19.84
2016-02-07T08:25:04.597Z,19.77
2016-02-07T08:26:04.648Z,19.85
2016-02-07T08:27:04.887Z,19.77
2016-02-07T08:28:04.702Z,19.84
2016-02-07T08:29:04.783Z,19.84
2016-02-07T08:30:04.754Z,19.81
2016-02-07T08:31:04.866Z,19.84
2016-02-07T08:32:04.838Z,19.81
2016-02-07T08:33:04.857Z,19.9
2016-02-07T08:34:04.876Z,19.92
2016-02-07T08:35:04.894Z,19.93
2016-02-07T08:36:04.928Z,19.99
2016-02-07T08:37:04.806Z,20.03
2016-02-07T08:38:05.013Z,19.96
2016-02-07T08:39:05.015Z,19.96
2016-02-07T08:40:06.455Z,19.9
2016-02-07T08:41:05.069Z,20.02
2016-02-07T08:42:05.105Z,20.07
2016-02-07T08:43:05.138Z,20.1
2016-02-07T08:44:05.156Z,20.08
2016-02-07T08:45:05.174Z,20.1
2016-02-07T08:46:05.197Z,20.1
2016-02-07T08:47:05.250Z,20.1
2016-02-07T08:48:05.285Z,20.11
2016-02-07T08:49:05.302Z,20.1
2016-02-07T08:50:05.337Z,20.12
2016-02-07T08:51:05.433Z,20.26
2016-02-07T08:52:05.373Z,20.18
2016-02-07T08:53:05.423Z,20.21
2016-02-07T08:54:05.427Z,20.15
2016-02-07T08:55:05.476Z,20.22
2016-02-07T08:56:05.482Z,20.21
2016-02-07T08:57:05.532Z,20.19
2016-02-07T08:58:05.550Z,20.19
2016-02-07T08:59:05.631Z,20.26
2016-02-07T09:00:05.617Z,20.22
2016-02-07T09:01:05.683Z,20.21
2016-02-07T09:02:18.387Z,20.21
2016-02-07T09:03:05.687Z,20.26
2016-02-07T09:04:05.721Z,20.19
2016-02-07T09:05:05.771Z,20.21
2016-02-07T09:06:05.789Z,20.32
2016-02-07T09:07:05.854Z,20.29
2016-02-07T09:08:05.841Z,20.22
2016-02-07T09:09:05.969Z,20.3
2016-02-07T09:10:05.908Z,20.33
2016-02-07T09:11:05.928Z,20.29
2016-02-07T09:12:18.695Z,20.32
2016-02-07T09:13:12.261Z,20.34
2016-02-07T09:14:05.985Z,20.32
2016-02-07T09:15:07.550Z,20.33
2016-02-07T09:16:06.053Z,20.44
2016-02-07T09:17:06.103Z,20.42
2016-02-07T09:18:06.123Z,20.29
2016-02-07T09:19:06.157Z,20.29
2016-02-07T09:20:06.195Z,20.32
2016-02-07T09:21:05.683Z,20.42
2016-02-07T09:22:06.279Z,20.36
2016-02-07T09:23:06.253Z,20.39
2016-02-07T09:24:06.286Z,20.49
2016-02-07T09:25:06.320Z,20.44
2016-02-07T09:26:06.386Z,20.39
2016-02-07T09:27:06.404Z,20.4
2016-02-07T09:28:19.129Z,20.39
2016-02-07T09:29:06.460Z,20.34
2016-02-07T09:30:06.448Z,20.42
2016-02-07T09:31:06.481Z,20.46
2016-02-07T09:32:06.515Z,20.42
2016-02-07T09:33:13.413Z,20.36
2016-02-07T09:34:06.586Z,20.46
2016-02-07T09:35:06.621Z,20.46
2016-02-07T09:36:06.628Z,20.48
2016-02-07T09:37:06.693Z,20.44
2016-02-07T09:38:06.695Z,20.44
2016-02-07T09:39:06.728Z,20.42
2016-02-07T09:40:06.950Z,20.34
2016-02-07T09:41:06.798Z,20.39
2016-02-07T09:42:06.909Z,20.39
2016-02-07T09:43:06.817Z,20.42
2016-02-07T09:44:06.900Z,20.44
2016-02-07T09:45:09.917Z,20.27
2016-02-07T09:46:07.140Z,20.39
2016-02-07T09:47:06.954Z,20.27
2016-02-07T09:48:06.973Z,20.26
2016-02-07T09:49:19.822Z,20.44
2016-02-07T09:50:07.123Z,20.22
2016-02-07T09:51:26.281Z,20.32
2016-02-07T09:52:07.081Z,20.27
2016-02-07T09:53:07.145Z,20.27
2016-02-07T09:54:07.133Z,20.32
2016-02-07T09:55:07.197Z,20.29
2016-02-07T09:56:07.216Z,20.39
2016-02-07T09:57:07.282Z,20.27
2016-02-07T09:58:07.285Z,20.42
2016-02-07T09:59:07.304Z,20.3
2016-02-07T10:00:07.369Z,20.44
2016-02-07T10:01:07.356Z,20.4
2016-02-07T10:02:07.219Z,20.42
2016-02-07T10:03:07.394Z,20.42
2016-02-07T10:04:07.443Z,20.4
2016-02-07T10:05:07.462Z,20.37
2016-02-07T10:06:07.840Z,20.42
2016-02-07T10:07:07.624Z,20.39
2016-02-07T10:08:07.641Z,20.44
2016-02-07T10:09:07.644Z,20.39
2016-02-07T10:10:07.617Z,20.44
2016-02-07T10:11:07.651Z,20.42
2016-02-07T10:12:07.669Z,20.39
2016-02-07T10:13:07.750Z,20.49
2016-02-07T10:14:07.736Z,20.53
2016-02-07T10:15:14.240Z,20.52
2016-02-07T10:16:07.789Z,20.48
2016-02-07T10:17:07.824Z,20.39
2016-02-07T10:18:07.826Z,20.46
2016-02-07T10:19:07.893Z,20.46
2016-02-07T10:20:07.997Z,20.48
2016-02-07T10:21:07.954Z,20.46
2016-02-07T10:22:07.957Z,20.48
2016-02-07T10:23:07.978Z,20.44
2016-02-07T10:24:08.043Z,20.42
2016-02-07T10:25:08.046Z,20.44
2016-02-07T10:26:08.080Z,20.49
2016-02-07T10:27:08.099Z,20.46
2016-02-07T10:28:08.163Z,20.39
2016-02-07T10:29:08.167Z,20.48
2016-02-07T10:30:08.186Z,20.44
2016-02-07T10:31:08.251Z,20.49
2016-02-07T10:32:08.254Z,20.42
2016-02-07T10:33:08.398Z,20.48
2016-02-07T10:34:08.306Z,20.4
2016-02-07T10:35:08.326Z,20.42
2016-02-07T10:36:08.359Z,20.39
2016-02-07T10:37:08.409Z,20.26
2016-02-07T10:38:08.412Z,20.27
2016-02-07T10:39:08.295Z,20.37
2016-02-07T10:40:08.469Z,20.36
2016-02-07T10:41:08.503Z,20.33
2016-02-07T10:42:08.536Z,20.36
2016-02-07T10:43:08.569Z,20.4
2016-02-07T10:44:08.652Z,20.27
2016-02-07T10:45:08.639Z,20.39
2016-02-07T10:46:08.657Z,20.26
2016-02-07T10:47:08.692Z,20.37
2016-02-07T10:48:08.694Z,20.29
2016-02-07T10:49:08.978Z,20.26
2016-02-07T10:50:08.778Z,20.37
2016-02-07T10:51:08.814Z,20.32
2016-02-07T10:52:08.820Z,20.39
2016-02-07T10:53:15.198Z,20.44
2016-02-07T10:54:21.622Z,20.42
2016-02-07T10:55:08.922Z,20.4
2016-02-07T10:56:08.971Z,20.49
2016-02-07T10:57:08.989Z,20.49
2016-02-07T10:58:08.993Z,20.59
2016-02-07T10:59:09.026Z,20.59
2016-02-07T11:00:09.062Z,20.67
2016-02-07T11:01:09.064Z,20.73
2016-02-07T11:02:09.145Z,20.71
2016-02-07T11:03:09.131Z,20.75
2016-02-07T11:04:09.228Z,20.77
2016-02-07T11:05:09.200Z,20.85
2016-02-07T11:06:09.266Z,20.88
2016-02-07T11:07:09.268Z,20.85
2016-02-07T11:08:22.005Z,20.9
2016-02-07T11:09:09.320Z,20.88
2016-02-07T11:10:09.313Z,20.93
2016-02-07T11:11:09.335Z,20.9
2016-02-07T11:12:09.341Z,20.89
2016-02-07T11:13:09.439Z,20.9
2016-02-07T11:14:09.399Z,20.89
2016-02-07T11:15:09.428Z,20.9
2016-02-07T11:16:09.442Z,20.89
2016-02-07T11:17:09.487Z,21.01
2016-02-07T11:18:09.500Z,20.93
2016-02-07T11:19:09.517Z,20.98
2016-02-07T11:20:09.615Z,21.03
2016-02-07T11:21:09.585Z,21.05
2016-02-07T11:22:09.649Z,21.01
2016-02-07T11:23:09.618Z,21.05
2016-02-07T11:24:09.730Z,21.1
2016-02-07T11:25:09.684Z,21.05
2016-02-07T11:26:09.686Z,20.92
2016-02-07T11:27:09.751Z,21.05
2016-02-07T11:28:09.769Z,20.96
2016-02-07T11:29:09.786Z,20.96
2016-02-07T11:30:09.804Z,21.07
2016-02-07T11:31:09.854Z,20.9
2016-02-07T11:32:09.887Z,21.04
2016-02-07T11:33:09.968Z,21.04
2016-02-07T11:34:22.658Z,21.03
2016-02-07T11:35:09.958Z,21.08
2016-02-07T11:36:10.008Z,21.07
2016-02-07T11:37:10.010Z,21.08
2016-02-07T11:38:10.044Z,21.11
2016-02-07T11:39:10.062Z,21.07
2016-02-07T11:40:10.098Z,21.13
2016-02-07T11:41:10.132Z,21.13
2016-02-07T11:42:10.181Z,21.11
2016-02-07T11:43:10.200Z,21.08
2016-02-07T11:44:10.265Z,21.17
2016-02-07T11:45:10.267Z,21.2
2016-02-07T11:46:10.349Z,21.15
2016-02-07T11:47:10.320Z,21.2
2016-02-07T11:48:10.354Z,21.14
2016-02-07T11:49:10.372Z,21.14
2016-02-07T11:50:10.422Z,21.15
2016-02-07T11:51:10.425Z,21.26
2016-02-07T11:52:11.975Z,21.23
2016-02-07T11:53:10.557Z,21.23
2016-02-07T11:54:10.528Z,21.19
2016-02-07T11:55:10.688Z,21.26
2016-02-07T11:56:10.565Z,21.29
2016-02-07T11:57:10.724Z,21.23
2016-02-07T11:58:10.710Z,21.28
2016-02-07T11:59:10.698Z,21.23
2016-02-07T12:00:10.749Z,21.26
2016-02-07T12:01:10.767Z,21.23
2016-02-07T12:02:10.800Z,21.2
2016-02-07T12:03:10.803Z,21.15
2016-02-07T12:04:10.821Z,21.25
2016-02-07T12:05:10.825Z,21.25
2016-02-07T12:06:10.894Z,21.2
2016-02-07T12:07:10.882Z,21.22
2016-02-07T12:08:10.931Z,21.19
2016-02-07T12:09:10.982Z,21.14
2016-02-07T12:10:10.984Z,21.22
2016-02-07T12:11:11.017Z,21.25
2016-02-07T12:12:17.364Z,21.17
2016-02-07T12:13:11.382Z,21.13
2016-02-07T12:14:11.089Z,21.25
2016-02-07T12:15:11.170Z,21.17
2016-02-07T12:16:11.563Z,21.14
2016-02-07T12:17:11.175Z,21.22
2016-02-07T12:18:11.224Z,21.22
2016-02-07T12:19:23.994Z,21.15
2016-02-07T12:20:11.293Z,21.25
2016-02-07T12:21:11.310Z,21.26
2016-02-07T12:22:11.329Z,21.2
2016-02-07T12:23:11.348Z,21.19
2016-02-07T12:24:11.456Z,21.26
2016-02-07T12:25:11.444Z,21.22
2016-02-07T12:26:11.463Z,21.25
2016-02-07T12:27:11.498Z,21.22
2016-02-07T12:28:11.516Z,21.22
2016-02-07T12:29:11.535Z,21.26
2016-02-07T12:30:11.569Z,21.23
2016-02-07T12:31:11.586Z,21.22
2016-02-07T12:32:17.918Z,21.28
2016-02-07T12:33:11.734Z,21.25
2016-02-07T12:34:11.706Z,21.23
2016-02-07T12:35:11.727Z,21.14
2016-02-07T12:36:11.745Z,21.23
2016-02-07T12:37:11.794Z,21.19
2016-02-07T12:38:11.813Z,21.28
2016-02-07T12:39:24.550Z,21.22
2016-02-07T12:40:11.834Z,21.25
2016-02-07T12:41:37.837Z,21.15
2016-02-07T12:42:11.949Z,21.22
2016-02-07T12:43:11.952Z,21.15
2016-02-07T12:44:11.220Z,21.25
2016-02-07T12:45:11.989Z,21.22
2016-02-07T12:46:12.039Z,21.19
2016-02-07T12:47:12.057Z,21.28
2016-02-07T12:48:12.090Z,21.23
2016-02-07T12:49:24.860Z,21.28
2016-02-07T12:50:12.159Z,21.23
2016-02-07T12:51:12.194Z,21.26
2016-02-07T12:52:12.212Z,21.28
2016-02-07T12:53:12.246Z,21.25
2016-02-07T12:54:12.252Z,21.25
2016-02-07T12:55:12.349Z,21.29
2016-02-07T12:56:12.351Z,21.25
2016-02-07T12:57:12.372Z,21.26
2016-02-07T12:58:12.640Z,21.29
2016-02-07T12:59:12.424Z,21.26
2016-02-07T13:00:12.411Z,21.35
2016-02-07T13:01:12.460Z,21.32
2016-02-07T13:02:12.480Z,21.35
2016-02-07T13:03:12.499Z,21.23
2016-02-07T13:04:12.595Z,21.29
2016-02-07T13:05:12.566Z,21.32
2016-02-07T13:06:12.616Z,21.35
2016-02-07T13:07:12.649Z,21.35
2016-02-07T13:08:12.684Z,21.26
2016-02-07T13:09:12.702Z,21.29
2016-02-07T13:10:12.720Z,21.3
2016-02-07T13:11:12.770Z,21.37
2016-02-07T13:12:12.820Z,21.32
2016-02-07T13:13:12.837Z,21.35
2016-02-07T13:14:12.825Z,21.38
2016-02-07T13:15:12.906Z,21.3
2016-02-07T13:16:12.956Z,21.35
2016-02-07T13:17:13.067Z,21.33
2016-02-07T13:18:12.961Z,21.3
2016-02-07T13:19:13.057Z,21.3
2016-02-07T13:20:13.029Z,21.37